Time;durP1;ratioP1;P1;durP2;ratioP2;P2;SDS_P1;SDS_P2;PMS_P1;PMS_P2;Temp;Humidity;BMP_temperature;BMP_pressure;BME280_temperature;BME280_humidity;BME280_pressure;Samples;Min_cycle;Max_cycle;Signal;HPM_P1;HPM_P2
2023/05/30 00:00:18;;;;;;;6.90;4.93;;;23.00;42.20;;;;;;5028344;28;20900;-86
2023/05/30 00:02:45;;;;;;;10.73;4.67;;;22.90;42.60;;;;;;5027091;28;20564;-86
2023/05/30 00:05:13;;;;;;;4.93;4.30;;;22.80;42.20;;;;;;5028834;28;20580;-86
2023/05/30 00:07:40;;;;;;;4.60;4.20;;;22.80;42.40;;;;;;5030337;28;20456;-85
2023/05/30 00:10:08;;;;;;;5.87;4.27;;;22.80;42.60;;;;;;5022876;28;20474;-85
2023/05/30 00:12:36;;;;;;;7.73;3.87;;;22.70;42.70;;;;;;5024664;28;21374;-85
2023/05/30 00:15:03;;;;;;;7.53;4.80;;;22.70;42.20;;;;;;5025436;28;20477;-84
2023/05/30 00:17:32;;;;;;;9.13;3.90;;;22.70;42.10;;;;;;5023904;28;20450;-84
2023/05/30 00:19:59;;;;;;;6.13;4.80;;;22.60;42.70;;;;;;5015342;28;20995;-84
2023/05/30 00:22:28;;;;;;;6.23;4.50;;;22.50;42.70;;;;;;5009793;28;20472;-86
2023/05/30 00:24:55;;;;;;;6.70;5.20;;;22.50;42.80;;;;;;5006684;28;20482;-84
2023/05/30 00:27:22;;;;;;;6.00;4.27;;;22.40;42.90;;;;;;5007107;28;20813;-85
2023/05/30 00:29:49;;;;;;;7.27;5.03;;;22.20;43.30;;;;;;5018361;28;20480;-85
2023/05/30 00:32:16;;;;;;;7.60;4.37;;;22.20;43.20;;;;;;5009831;28;20446;-81
2023/05/30 00:34:43;;;;;;;8.30;5.40;;;22.20;43.50;;;;;;5009444;28;20469;-85
2023/05/30 00:37:12;;;;;;;5.33;4.63;;;22.20;43.70;;;;;;5029500;28;20461;-85
2023/05/30 00:39:41;;;;;;;6.90;5.20;;;22.20;43.50;;;;;;5033169;28;20446;-85
2023/05/30 00:42:08;;;;;;;9.10;5.00;;;22.10;43.10;;;;;;5006229;28;20512;-86
2023/05/30 00:44:35;;;;;;;8.73;5.30;;;22.10;43.70;;;;;;5016034;28;20871;-83
2023/05/30 00:47:02;;;;;;;6.97;4.87;;;22.10;43.50;;;;;;5030407;28;20949;-85
2023/05/30 00:49:30;;;;;;;7.97;5.00;;;22.10;44.40;;;;;;5001203;28;21225;-83
2023/05/30 00:51:57;;;;;;;11.80;5.43;;;22.00;43.70;;;;;;5007416;28;20446;-85
2023/05/30 00:54:24;;;;;;;7.97;5.53;;;21.90;43.40;;;;;;5026056;28;20477;-85
2023/05/30 00:56:53;;;;;;;6.33;4.50;;;21.90;43.80;;;;;;5025914;28;20872;-84
2023/05/30 00:59:20;;;;;;;5.53;4.30;;;21.90;42.90;;;;;;4994468;28;20446;-85
2023/05/30 01:01:48;;;;;;;5.37;4.37;;;21.80;43.30;;;;;;5023982;28;20490;-85
2023/05/30 01:04:15;;;;;;;7.27;4.30;;;21.80;43.40;;;;;;5025746;28;20990;-84
2023/05/30 01:06:46;;;;;;;5.83;3.90;;;21.80;43.80;;;;;;5000129;28;20459;-85
2023/05/30 01:09:14;;;;;;;5.77;4.40;;;21.80;43.70;;;;;;5000101;28;20453;-85
2023/05/30 01:11:54;;;;;;;5.43;4.30;;;21.50;43.30;;;;;;4999228;28;20454;-84
2023/05/30 01:14:32;;;;;;;4.30;3.60;;;21.50;43.40;;;;;;5013758;28;20474;-84
2023/05/30 01:17:02;;;;;;;5.07;3.60;;;21.40;42.80;;;;;;4994779;28;20815;-85
2023/05/30 01:19:55;;;;;;;8.30;4.17;;;21.10;43.50;;;;;;5009300;28;20481;-83
2023/05/30 01:22:30;;;;;;;6.00;3.83;;;21.10;43.00;;;;;;5024527;28;20447;-82
2023/05/30 01:25:13;;;;;;;5.50;4.17;;;21.10;43.50;;;;;;5009321;28;20544;-84
2023/05/30 01:27:52;;;;;;;4.53;3.60;;;21.10;44.00;;;;;;5023910;28;20442;-85
2023/05/30 01:30:21;;;;;;;5.13;3.70;;;21.10;43.60;;;;;;5005123;28;20994;-86
2023/05/30 01:32:49;;;;;;;7.57;4.40;;;21.00;43.50;;;;;;5005476;28;20444;-85
2023/05/30 01:35:23;;;;;;;5.53;3.90;;;20.90;43.40;;;;;;5000768;28;20478;-82
2023/05/30 01:37:51;;;;;;;7.10;4.43;;;20.70;43.40;;;;;;5000444;28;20503;-84
2023/05/30 01:40:28;;;;;;;11.27;4.30;;;20.50;44.70;;;;;;4996434;28;20442;-84
2023/05/30 01:42:59;;;;;;;5.00;3.67;;;20.30;44.90;;;;;;5007551;28;20445;-85
2023/05/30 01:45:37;;;;;;;6.63;3.50;;;20.20;45.80;;;;;;5005042;28;20513;-84
2023/05/30 01:48:11;;;;;;;5.63;3.67;;;20.20;45.50;;;;;;5022993;28;20446;-85
2023/05/30 01:50:44;;;;;;;6.43;4.23;;;20.30;45.50;;;;;;5014165;28;21557;-84
2023/05/30 01:53:18;;;;;;;6.80;3.83;;;20.40;45.50;;;;;;5009539;28;20446;-85
2023/05/30 01:55:46;;;;;;;4.77;3.53;;;20.50;45.30;;;;;;5000284;28;20466;-84
2023/05/30 01:58:19;;;;;;;4.83;3.23;;;20.60;45.00;;;;;;4991142;28;21224;-85
2023/05/30 02:00:47;;;;;;;5.30;3.77;;;20.50;45.40;;;;;;5032928;28;20458;-85
2023/05/30 02:03:14;;;;;;;3.70;3.40;;;20.50;45.10;;;;;;4993263;28;20565;-85
2023/05/30 02:05:40;;;;;;;7.07;3.77;;;20.60;45.10;;;;;;5031915;28;20509;-86
2023/05/30 02:08:07;;;;;;;4.73;3.03;;;20.60;44.80;;;;;;5006421;28;20454;-84
2023/05/30 02:10:34;;;;;;;6.90;3.37;;;20.60;44.50;;;;;;5007481;28;20475;-83
2023/05/30 02:13:01;;;;;;;4.53;3.77;;;20.60;44.20;;;;;;5005945;28;20545;-85
2023/05/30 02:15:29;;;;;;;5.43;3.63;;;20.60;44.90;;;;;;5005351;28;20466;-85
2023/05/30 02:17:59;;;;;;;6.30;3.13;;;20.30;43.80;;;;;;5023622;28;20481;-85
2023/05/30 02:20:26;;;;;;;4.83;3.23;;;20.20;44.60;;;;;;5006912;28;20449;-84
2023/05/30 02:22:53;;;;;;;6.30;3.90;;;20.20;44.70;;;;;;5007669;28;21049;-85
2023/05/30 02:25:20;;;;;;;4.33;3.47;;;20.20;44.50;;;;;;5028431;28;20561;-84
2023/05/30 02:27:49;;;;;;;6.80;3.60;;;20.20;44.00;;;;;;5014799;28;20987;-83
2023/05/30 02:30:18;;;;;;;3.40;2.50;;;20.10;43.80;;;;;;5020278;28;20462;-83
2023/05/30 02:32:46;;;;;;;6.43;3.70;;;19.90;44.10;;;;;;5016991;28;20898;-85
2023/05/30 02:35:15;;;;;;;3.80;3.10;;;19.80;44.80;;;;;;5024670;28;20486;-85
2023/05/30 02:37:42;;;;;;;6.27;3.13;;;19.80;44.70;;;;;;5008673;28;20447;-85
2023/05/30 02:40:11;;;;;;;3.20;2.50;;;19.90;45.20;;;;;;5005840;28;20457;-84
2023/05/30 02:42:38;;;;;;;6.03;3.27;;;19.90;44.50;;;;;;5024590;28;20442;-85
2023/05/30 02:45:06;;;;;;;6.20;3.07;;;19.80;45.40;;;;;;5005133;28;21141;-85
2023/05/30 02:47:35;;;;;;;3.67;3.33;;;19.80;44.80;;;;;;5005166;28;20437;-83
2023/05/30 02:50:04;;;;;;;6.37;3.20;;;19.70;44.40;;;;;;5022215;28;20478;-85
2023/05/30 02:52:31;;;;;;;4.00;3.33;;;19.60;45.00;;;;;;4988518;28;20447;-82
2023/05/30 02:55:01;;;;;;;4.20;2.67;;;19.70;45.10;;;;;;5008617;28;20477;-83
2023/05/30 02:57:46;;;;;;;4.57;3.07;;;19.60;45.20;;;;;;5014815;28;20441;-84
2023/05/30 03:00:34;;;;;;;6.00;3.20;;;19.70;44.80;;;;;;5009756;28;20459;-84
2023/05/30 03:03:19;;;;;;;3.27;2.97;;;19.60;45.00;;;;;;5027032;28;20973;-85
2023/05/30 03:05:50;;;;;;;5.03;2.87;;;19.60;45.60;;;;;;5010245;28;20849;-82
2023/05/30 03:08:31;;;;;;;5.70;3.30;;;19.50;45.80;;;;;;5017913;28;20469;-86
2023/05/30 03:10:59;;;;;;;6.97;3.20;;;19.50;45.90;;;;;;5019799;28;20520;-84
2023/05/30 03:13:26;;;;;;;6.97;3.37;;;19.60;45.20;;;;;;5027731;28;20446;-85
2023/05/30 03:15:54;;;;;;;3.30;2.90;;;19.60;45.40;;;;;;5028701;28;20585;-85
2023/05/30 03:18:21;;;;;;;6.70;3.07;;;19.60;44.40;;;;;;5016932;28;20481;-83
2023/05/30 03:20:50;;;;;;;7.07;3.57;;;19.30;45.40;;;;;;5008764;28;20924;-82
2023/05/30 03:23:18;;;;;;;7.53;3.73;;;19.30;45.80;;;;;;5013598;28;20473;-84
2023/05/30 03:25:45;;;;;;;4.83;3.10;;;19.30;46.10;;;;;;4995146;28;20521;-84
2023/05/30 03:28:12;;;;;;;4.53;3.13;;;19.50;46.00;;;;;;5009918;28;20457;-83
2023/05/30 03:30:59;;;;;;;5.93;3.07;;;19.50;45.40;;;;;;5008336;28;20852;-86
2023/05/30 03:33:28;;;;;;;3.43;2.60;;;19.60;45.60;;;;;;5010210;28;20453;-85
2023/05/30 03:35:57;;;;;;;3.13;2.83;;;19.50;44.60;;;;;;4993579;28;20554;-84
2023/05/30 03:38:23;;;;;;;5.13;3.23;;;19.50;44.80;;;;;;4993542;28;20573;-82
2023/05/30 03:40:50;;;;;;;7.60;3.57;;;19.50;46.00;;;;;;5021958;28;20458;-84
2023/05/30 03:43:17;;;;;;;3.40;2.60;;;19.40;44.70;;;;;;5016838;28;20610;-84
2023/05/30 03:45:44;;;;;;;4.60;2.87;;;19.30;44.70;;;;;;5023295;28;21188;-84
2023/05/30 03:48:11;;;;;;;3.83;2.27;;;19.40;45.00;;;;;;4993651;28;20448;-84
2023/05/30 03:50:38;;;;;;;6.10;2.80;;;19.40;45.00;;;;;;5043193;28;20462;-83
2023/05/30 03:53:06;;;;;;;3.90;2.70;;;19.40;45.10;;;;;;5002393;28;20473;-84
2023/05/30 03:55:33;;;;;;;6.20;3.90;;;19.40;45.60;;;;;;5009476;28;21405;-83
2023/05/30 03:58:00;;;;;;;4.93;3.00;;;19.40;45.20;;;;;;4992101;28;21092;-85
2023/05/30 04:00:27;;;;;;;5.53;3.00;;;19.50;45.30;;;;;;5014663;28;21046;-84
2023/05/30 04:02:59;;;;;;;3.40;2.60;;;19.50;45.40;;;;;;5017574;28;20451;-84
2023/05/30 04:05:27;;;;;;;4.63;2.90;;;19.50;44.80;;;;;;4986548;28;20489;-82
2023/05/30 04:07:54;;;;;;;7.70;3.13;;;19.50;45.50;;;;;;5018904;28;20543;-82
2023/05/30 04:10:22;;;;;;;4.80;3.00;;;19.40;45.10;;;;;;4991761;28;20485;-83
2023/05/30 04:12:51;;;;;;;3.30;2.80;;;19.50;45.70;;;;;;4990191;28;20917;-83
2023/05/30 04:15:18;;;;;;;3.20;2.90;;;19.50;45.80;;;;;;5011057;28;20473;-81
2023/05/30 04:17:45;;;;;;;3.47;2.70;;;19.50;45.70;;;;;;5000590;28;20499;-82
2023/05/30 04:20:13;;;;;;;4.80;2.50;;;19.50;45.20;;;;;;5011708;28;20565;-81
2023/05/30 04:22:42;;;;;;;3.63;2.70;;;19.50;45.30;;;;;;5004933;28;20457;-81
2023/05/30 04:25:11;;;;;;;8.00;3.07;;;19.50;45.40;;;;;;5029594;28;21778;-81
2023/05/30 04:27:41;;;;;;;4.43;2.70;;;19.20;44.30;;;;;;5006475;28;20449;-84
2023/05/30 04:30:09;;;;;;;5.80;3.60;;;19.00;44.70;;;;;;5028782;28;20446;-80
2023/05/30 04:32:36;;;;;;;5.40;3.47;;;19.00;44.90;;;;;;4992682;28;20492;-81
2023/05/30 04:35:05;;;;;;;6.70;2.57;;;19.20;45.40;;;;;;5013287;28;21132;-82
2023/05/30 04:37:33;;;;;;;3.53;2.67;;;19.30;44.90;;;;;;5021362;28;20454;-83
2023/05/30 04:40:00;;;;;;;2.73;2.53;;;19.30;45.10;;;;;;5022527;28;20477;-81
2023/05/30 04:42:27;;;;;;;4.57;3.00;;;19.40;44.80;;;;;;5021822;28;20450;-82
2023/05/30 04:44:56;;;;;;;7.43;2.83;;;19.50;44.80;;;;;;5009713;28;20486;-81
2023/05/30 04:47:24;;;;;;;3.57;2.50;;;19.50;44.10;;;;;;5015519;28;20447;-82
2023/05/30 04:49:54;;;;;;;6.43;2.90;;;19.50;43.80;;;;;;4998999;28;20442;-83
2023/05/30 04:52:21;;;;;;;4.20;3.10;;;19.60;44.50;;;;;;5031153;28;21191;-84
2023/05/30 04:54:48;;;;;;;4.83;3.37;;;19.70;45.10;;;;;;5014780;28;21411;-83
2023/05/30 04:57:15;;;;;;;4.43;3.03;;;19.80;44.80;;;;;;5009469;28;20454;-83
2023/05/30 04:59:43;;;;;;;4.07;2.60;;;19.80;43.60;;;;;;5005230;28;20462;-82
2023/05/30 05:02:12;;;;;;;6.17;2.57;;;19.90;43.20;;;;;;5022187;28;20450;-82
2023/05/30 05:04:39;;;;;;;7.90;2.53;;;19.90;43.60;;;;;;5026611;28;20475;-82
2023/05/30 05:07:06;;;;;;;11.20;2.83;;;19.90;43.40;;;;;;5020958;28;20930;-83
2023/05/30 05:09:33;;;;;;;4.13;2.90;;;19.80;44.10;;;;;;5010644;28;20446;-84
2023/05/30 05:12:01;;;;;;;4.47;2.50;;;19.90;42.50;;;;;;5015970;28;21272;-82
2023/05/30 05:14:28;;;;;;;3.53;2.40;;;20.00;43.00;;;;;;5023367;28;20461;-82
2023/05/30 05:16:55;;;;;;;6.43;2.10;;;20.00;41.90;;;;;;5021118;28;20446;-82
2023/05/30 05:19:23;;;;;;;5.73;2.60;;;20.00;41.70;;;;;;5020231;28;20450;-83
2023/05/30 05:21:50;;;;;;;11.67;2.77;;;20.00;41.60;;;;;;5025172;28;20508;-83
2023/05/30 05:24:17;;;;;;;4.40;2.27;;;20.10;41.90;;;;;;5027114;28;20515;-83
2023/05/30 05:26:44;;;;;;;6.53;2.40;;;20.10;41.70;;;;;;5029323;28;20520;-85
2023/05/30 05:29:12;;;;;;;9.43;2.80;;;20.00;41.40;;;;;;5024255;28;20450;-84
2023/05/30 05:31:39;;;;;;;6.07;2.67;;;20.10;43.20;;;;;;4993343;28;20470;-82
2023/05/30 05:34:06;;;;;;;3.40;2.77;;;20.10;42.20;;;;;;5028315;28;20449;-83
2023/05/30 05:36:35;;;;;;;3.60;2.53;;;20.10;40.50;;;;;;5027072;28;20533;-83
2023/05/30 05:39:02;;;;;;;7.13;2.70;;;20.10;41.40;;;;;;5027176;28;20945;-84
2023/05/30 05:41:29;;;;;;;3.40;2.60;;;20.20;41.40;;;;;;5026521;28;20449;-84
2023/05/30 05:43:56;;;;;;;2.07;1.87;;;20.30;41.50;;;;;;5026343;28;20458;-83
2023/05/30 05:46:22;;;;;;;7.30;2.40;;;20.10;38.10;;;;;;5015378;28;20450;-83
2023/05/30 05:48:49;;;;;;;2.00;1.73;;;20.20;40.10;;;;;;5007612;28;21365;-83
2023/05/30 05:51:16;;;;;;;10.17;2.33;;;20.20;38.60;;;;;;5025245;28;20467;-84
2023/05/30 05:53:44;;;;;;;10.70;2.20;;;20.00;38.00;;;;;;4994106;28;20519;-82
2023/05/30 05:56:11;;;;;;;4.50;2.03;;;19.90;38.10;;;;;;5012386;28;20676;-82
2023/05/30 05:58:38;;;;;;;6.70;2.10;;;20.10;39.60;;;;;;4996398;28;20461;-84
2023/05/30 06:01:05;;;;;;;5.57;2.10;;;20.20;39.80;;;;;;5006823;28;20442;-85
2023/05/30 06:03:32;;;;;;;8.20;2.63;;;20.30;39.80;;;;;;5031688;28;20509;-82
2023/05/30 06:06:00;;;;;;;6.00;2.13;;;20.20;38.00;;;;;;4995537;28;20482;-84
2023/05/30 06:08:27;;;;;;;19.03;2.90;;;20.00;37.80;;;;;;5006501;28;20438;-83
2023/05/30 06:10:55;;;;;;;8.23;1.97;;;20.00;38.80;;;;;;5029296;28;20967;-83
2023/05/30 06:13:22;;;;;;;7.53;1.93;;;20.10;38.50;;;;;;5021600;28;20507;-84
2023/05/30 06:15:49;;;;;;;4.33;2.00;;;20.10;37.40;;;;;;5019357;28;20749;-82
2023/05/30 06:18:16;;;;;;;5.23;1.87;;;20.20;38.30;;;;;;5018151;28;21202;-82
2023/05/30 06:20:43;;;;;;;4.90;2.03;;;20.40;37.50;;;;;;5006082;28;20449;-84
2023/05/30 06:23:09;;;;;;;6.97;2.10;;;20.30;35.60;;;;;;5005469;28;20454;-82
2023/05/30 06:25:36;;;;;;;6.33;2.40;;;20.20;36.00;;;;;;5013297;28;20488;-82
2023/05/30 06:28:05;;;;;;;4.77;2.00;;;20.30;36.80;;;;;;5023592;28;20457;-82
2023/05/30 06:30:32;;;;;;;7.00;2.50;;;20.50;36.90;;;;;;5003857;28;20446;-84
2023/05/30 06:32:58;;;;;;;7.80;2.00;;;20.60;36.60;;;;;;5028918;28;20469;-83
2023/05/30 06:35:25;;;;;;;4.13;2.37;;;20.80;36.30;;;;;;5022758;28;21007;-82
2023/05/30 06:37:52;;;;;;;10.40;2.40;;;20.90;35.50;;;;;;5027898;28;21169;-83
2023/05/30 06:40:19;;;;;;;7.67;2.17;;;21.00;34.80;;;;;;5037119;28;20458;-84
2023/05/30 06:42:46;;;;;;;5.43;1.90;;;21.00;34.30;;;;;;5009409;28;20504;-81
2023/05/30 06:45:14;;;;;;;5.63;1.60;;;21.10;35.70;;;;;;5026966;28;21540;-83
2023/05/30 06:47:41;;;;;;;6.20;2.47;;;20.90;33.50;;;;;;5021175;28;20449;-82
2023/05/30 06:50:09;;;;;;;8.03;2.60;;;21.00;34.90;;;;;;5028311;28;20453;-85
2023/05/30 06:52:36;;;;;;;9.27;2.40;;;20.80;34.70;;;;;;5013456;28;20522;-84
2023/05/30 06:55:03;;;;;;;3.30;1.97;;;20.80;35.20;;;;;;5009647;28;20992;-84
2023/05/30 06:57:30;;;;;;;3.03;2.00;;;20.90;35.00;;;;;;5023962;28;20959;-83
2023/05/30 06:59:57;;;;;;;4.10;2.57;;;21.00;35.60;;;;;;5012858;28;20938;-81
2023/05/30 07:02:25;;;;;;;7.47;2.20;;;20.90;34.80;;;;;;5021291;28;20568;-84
2023/05/30 07:04:52;;;;;;;4.10;2.00;;;21.00;35.00;;;;;;5001385;28;20573;-85
2023/05/30 07:07:19;;;;;;;7.07;2.07;;;20.80;34.00;;;;;;5020906;28;20504;-83
2023/05/30 07:09:46;;;;;;;5.47;2.00;;;21.00;34.50;;;;;;5016893;28;20450;-81
2023/05/30 07:12:14;;;;;;;2.73;2.07;;;21.10;35.30;;;;;;5021031;28;20481;-83
2023/05/30 07:14:41;;;;;;;10.43;2.23;;;21.00;34.00;;;;;;5014094;28;20499;-84
2023/05/30 07:17:08;;;;;;;3.67;2.07;;;21.00;35.20;;;;;;5030740;28;20462;-83
2023/05/30 07:19:36;;;;;;;5.60;1.83;;;21.10;34.20;;;;;;5026771;28;20450;-84
2023/05/30 07:22:04;;;;;;;4.20;1.90;;;21.40;34.40;;;;;;5021740;28;20457;-83
2023/05/30 07:24:31;;;;;;;6.70;2.77;;;21.70;34.10;;;;;;5031147;28;20473;-84
2023/05/30 07:26:58;;;;;;;5.03;2.03;;;21.80;33.30;;;;;;5027459;28;21220;-82
2023/05/30 07:29:25;;;;;;;6.37;2.03;;;21.80;32.80;;;;;;5027692;28;20454;-82
2023/05/30 07:31:52;;;;;;;7.50;2.50;;;21.90;34.20;;;;;;5037828;28;21260;-82
2023/05/30 07:34:18;;;;;;;3.13;1.90;;;22.00;35.00;;;;;;5038483;28;20474;-82
2023/05/30 07:36:47;;;;;;;6.17;1.80;;;22.20;33.30;;;;;;5005979;28;20454;-81
2023/05/30 07:39:14;;;;;;;2.70;2.07;;;22.20;32.80;;;;;;4995256;28;20515;-83
2023/05/30 07:41:40;;;;;;;6.87;2.20;;;22.20;32.60;;;;;;5020348;28;21294;-83
2023/05/30 07:44:07;;;;;;;7.17;2.17;;;22.20;33.00;;;;;;5022894;28;20457;-84
2023/05/30 07:46:34;;;;;;;6.70;2.07;;;22.30;34.10;;;;;;5024833;28;20469;-82
2023/05/30 07:49:01;;;;;;;7.90;2.37;;;22.50;34.50;;;;;;4992096;28;20458;-83
2023/05/30 07:51:28;;;;;;;4.27;2.17;;;22.50;32.30;;;;;;5006928;28;20446;-83
2023/05/30 07:53:56;;;;;;;6.77;2.13;;;22.50;33.10;;;;;;4997314;28;20454;-83
2023/05/30 07:56:24;;;;;;;8.10;2.40;;;22.60;31.80;;;;;;5024870;28;20557;-82
2023/05/30 07:58:51;;;;;;;4.40;2.20;;;22.50;32.30;;;;;;5015715;28;20447;-81
2023/05/30 08:01:18;;;;;;;3.80;1.63;;;22.50;31.50;;;;;;5006239;28;20446;-83
2023/05/30 08:03:45;;;;;;;11.53;2.93;;;22.60;32.20;;;;;;5022433;28;20462;-83
2023/05/30 08:06:12;;;;;;;5.17;1.80;;;23.10;33.30;;;;;;5023792;28;20484;-83
2023/05/30 08:08:39;;;;;;;4.83;2.13;;;23.30;31.50;;;;;;5011160;28;20959;-83
2023/05/30 08:11:07;;;;;;;5.53;2.53;;;23.40;31.10;;;;;;5005629;28;20508;-83
2023/05/30 08:13:34;;;;;;;3.90;1.73;;;23.60;32.10;;;;;;5025747;28;20808;-83
2023/05/30 08:16:01;;;;;;;3.07;1.80;;;23.50;30.10;;;;;;5022491;28;20492;-83
2023/05/30 08:18:30;;;;;;;4.47;1.83;;;23.50;31.80;;;;;;4993379;28;20540;-84
2023/05/30 08:20:57;;;;;;;7.07;2.40;;;23.40;31.10;;;;;;5023480;28;20580;-83
2023/05/30 08:23:24;;;;;;;2.67;1.80;;;23.30;31.80;;;;;;5004916;28;20812;-83
2023/05/30 08:25:52;;;;;;;5.50;2.43;;;23.40;31.80;;;;;;5022080;28;20954;-83
2023/05/30 08:28:21;;;;;;;3.30;1.93;;;23.70;32.20;;;;;;5013736;28;22685;-82
2023/05/30 08:30:49;;;;;;;5.17;2.07;;;24.00;30.20;;;;;;5016098;28;20465;-81
2023/05/30 08:33:16;;;;;;;3.40;2.17;;;23.90;31.30;;;;;;5023925;28;20476;-83
2023/05/30 08:35:44;;;;;;;7.00;2.13;;;24.20;30.40;;;;;;5000151;28;20465;-84
2023/05/30 08:38:11;;;;;;;8.50;2.00;;;24.10;31.50;;;;;;5007374;28;21182;-81
2023/05/30 08:40:42;;;;;;;3.63;2.20;;;24.30;31.10;;;;;;5008654;28;20451;-83
2023/05/30 08:43:10;;;;;;;4.37;2.10;;;24.40;31.10;;;;;;5023019;28;20519;-82
2023/05/30 08:45:38;;;;;;;3.30;1.53;;;24.10;30.30;;;;;;4992469;28;20477;-83
2023/05/30 08:48:06;;;;;;;3.37;1.83;;;24.10;30.60;;;;;;5008423;28;20451;-84
2023/05/30 08:50:37;;;;;;;3.30;1.90;;;24.30;30.70;;;;;;5010363;28;20835;-84
2023/05/30 08:53:08;;;;;;;4.43;2.47;;;24.20;29.80;;;;;;5016049;28;20584;-84
2023/05/30 08:55:42;;;;;;;5.60;1.70;;;24.30;30.20;;;;;;5011136;28;20548;-83
2023/05/30 08:58:15;;;;;;;6.50;1.70;;;24.40;30.00;;;;;;5000430;28;20456;-83
2023/05/30 09:00:44;;;;;;;5.20;2.23;;;24.40;29.90;;;;;;5023967;28;20462;-84
2023/05/30 09:03:13;;;;;;;5.43;2.07;;;24.40;29.80;;;;;;5020528;28;20457;-85
2023/05/30 09:05:41;;;;;;;3.17;1.70;;;24.50;29.20;;;;;;5025871;28;20544;-83
2023/05/30 09:08:10;;;;;;;3.10;1.80;;;24.50;30.00;;;;;;4995999;28;20446;-83
2023/05/30 09:10:37;;;;;;;6.10;1.90;;;24.60;30.10;;;;;;5027247;28;20864;-84
2023/05/30 09:13:04;;;;;;;3.07;1.80;;;24.90;29.00;;;;;;5025464;28;20465;-83
2023/05/30 09:15:31;;;;;;;3.53;1.97;;;25.10;29.20;;;;;;5025880;28;20497;-84
2023/05/30 09:18:00;;;;;;;3.30;2.07;;;24.90;27.70;;;;;;5006871;28;20457;-83
2023/05/30 09:20:31;;;;;;;8.00;2.47;;;25.10;28.70;;;;;;5023776;28;20509;-83
2023/05/30 09:22:58;;;;;;;4.87;2.10;;;25.10;28.80;;;;;;5016317;28;20450;-84
2023/05/30 09:25:25;;;;;;;4.40;1.77;;;25.20;29.00;;;;;;5027546;28;20508;-85
2023/05/30 09:27:54;;;;;;;2.20;2.00;;;25.50;28.50;;;;;;5024557;28;21122;-83
2023/05/30 09:30:21;;;;;;;2.90;1.70;;;25.40;28.70;;;;;;5014502;28;20451;-84
2023/05/30 09:33:02;;;;;;;4.97;1.97;;;25.40;28.20;;;;;;5001787;28;20466;-83
2023/05/30 09:35:29;;;;;;;3.63;2.03;;;25.30;28.80;;;;;;5009766;28;20477;-82
2023/05/30 09:37:56;;;;;;;4.67;2.20;;;25.20;29.10;;;;;;5025379;28;20537;-83
2023/05/30 09:40:24;;;;;;;3.67;2.13;;;25.50;29.50;;;;;;5025137;28;20454;-84
2023/05/30 09:42:53;;;;;;;3.43;1.87;;;25.60;27.80;;;;;;5014691;28;20457;-84
2023/05/30 09:45:23;;;;;;;5.67;2.23;;;26.10;27.90;;;;;;4994366;28;20473;-83
2023/05/30 09:47:51;;;;;;;7.50;2.10;;;26.20;28.00;;;;;;5024125;28;20450;-83
2023/05/30 09:50:21;;;;;;;4.40;1.83;;;26.20;28.70;;;;;;5013298;28;20453;-84
2023/05/30 09:52:51;;;;;;;7.30;1.97;;;26.50;29.50;;;;;;5022599;28;20466;-85
2023/05/30 09:55:20;;;;;;;5.53;2.30;;;26.70;27.50;;;;;;5033625;28;20467;-84
2023/05/30 09:57:49;;;;;;;4.00;2.30;;;26.70;28.10;;;;;;5024175;28;20492;-83
2023/05/30 10:00:22;;;;;;;8.10;2.43;;;27.00;26.10;;;;;;5003170;28;20446;-83
2023/05/30 10:02:53;;;;;;;2.67;1.90;;;27.00;26.10;;;;;;5044124;28;20543;-86
2023/05/30 10:05:23;;;;;;;4.67;2.23;;;26.70;27.40;;;;;;5025669;28;20469;-83
2023/05/30 10:07:51;;;;;;;4.60;2.20;;;27.00;26.50;;;;;;4994247;28;20446;-83
2023/05/30 10:10:19;;;;;;;3.73;1.70;;;27.10;26.50;;;;;;5000931;28;20447;-84
2023/05/30 10:12:49;;;;;;;5.63;2.07;;;27.20;25.20;;;;;;5026265;28;20543;-82
2023/05/30 10:15:16;;;;;;;3.83;1.60;;;27.40;26.40;;;;;;5029254;28;21260;-81
2023/05/30 10:17:48;;;;;;;4.93;2.20;;;27.50;25.90;;;;;;4993174;28;20466;-83
2023/05/30 10:20:18;;;;;;;2.80;2.07;;;27.70;26.10;;;;;;4990295;28;20488;-82
2023/05/30 10:22:48;;;;;;;2.90;2.10;;;27.70;26.10;;;;;;5013686;28;20435;-82
2023/05/30 10:25:18;;;;;;;5.07;2.20;;;27.50;26.90;;;;;;4998538;28;20473;-82
2023/05/30 10:27:49;;;;;;;3.93;2.00;;;27.80;26.30;;;;;;5018812;28;20481;-82
2023/05/30 10:30:21;;;;;;;5.30;1.90;;;27.80;26.00;;;;;;4998085;28;20646;-82
2023/05/30 10:32:56;;;;;;;3.63;1.80;;;27.70;25.00;;;;;;5025524;28;21056;-80
2023/05/30 10:35:24;;;;;;;12.23;2.63;;;27.40;25.20;;;;;;4999068;28;20600;-83
2023/05/30 10:37:53;;;;;;;5.20;2.87;;;27.60;26.70;;;;;;5015070;28;20466;-84
2023/05/30 10:40:30;;;;;;;7.77;2.47;;;27.80;25.50;;;;;;4997048;28;20447;-82
2023/05/30 10:43:08;;;;;;;4.70;2.10;;;27.80;26.30;;;;;;4994420;28;20454;-83
2023/05/30 10:45:45;;;;;;;4.37;2.60;;;27.90;25.70;;;;;;4997954;28;20474;-81
2023/05/30 10:48:26;;;;;;;6.70;2.10;;;27.90;25.70;;;;;;4986782;28;21005;-83
2023/05/30 10:50:59;;;;;;;4.33;2.10;;;28.20;25.60;;;;;;4989415;28;20454;-83
2023/05/30 10:53:28;;;;;;;3.87;2.37;;;28.10;26.00;;;;;;4996303;28;20470;-83
2023/05/30 10:55:55;;;;;;;8.93;2.33;;;28.30;25.80;;;;;;4996560;28;20489;-83
2023/05/30 10:58:38;;;;;;;3.53;2.20;;;28.10;25.10;;;;;;4992343;28;20535;-84
2023/05/30 11:01:26;;;;;;;4.83;2.23;;;28.00;26.10;;;;;;4984260;28;21184;-84
2023/05/30 11:03:58;;;;;;;6.77;2.20;;;28.10;25.10;;;;;;5003086;28;20458;-84
2023/05/30 11:06:27;;;;;;;2.10;1.90;;;28.00;25.10;;;;;;5005400;28;20457;-84
2023/05/30 11:09:05;;;;;;;6.50;2.93;;;27.60;25.30;;;;;;5011807;28;21264;-84
2023/05/30 11:11:40;;;;;;;2.93;2.10;;;28.10;25.80;;;;;;4989749;28;20445;-84
2023/05/30 11:14:07;;;;;;;4.37;2.30;;;28.40;24.90;;;;;;5020154;28;20472;-84
2023/05/30 11:16:49;;;;;;;4.10;1.97;;;28.40;25.30;;;;;;5004020;28;21195;-84
2023/05/30 11:19:18;;;;;;;4.00;2.10;;;28.60;26.20;;;;;;4997092;28;20435;-84
2023/05/30 11:21:55;;;;;;;4.00;2.30;;;28.50;24.50;;;;;;4997066;28;20456;-84
2023/05/30 11:24:24;;;;;;;6.40;2.00;;;28.80;25.80;;;;;;4992022;28;20499;-83
2023/05/30 11:26:59;;;;;;;3.50;1.80;;;29.30;24.90;;;;;;5009346;28;20453;-83
2023/05/30 11:29:35;;;;;;;3.50;2.20;;;29.50;23.00;;;;;;5004989;28;20488;-85
2023/05/30 11:32:02;;;;;;;2.23;2.03;;;29.00;22.10;;;;;;5032701;28;20442;-85
2023/05/30 11:34:30;;;;;;;6.53;2.60;;;28.90;20.90;;;;;;5021655;28;20482;-82
2023/05/30 11:36:58;;;;;;;3.43;1.93;;;28.80;21.30;;;;;;5004802;28;20563;-85
2023/05/30 11:39:26;;;;;;;4.57;2.07;;;29.00;21.10;;;;;;4999848;28;20454;-84
2023/05/30 11:41:54;;;;;;;6.17;1.93;;;29.00;21.00;;;;;;4994477;28;20458;-84
2023/05/30 11:44:21;;;;;;;3.73;2.20;;;29.00;21.50;;;;;;4997482;28;20467;-84
2023/05/30 11:47:01;;;;;;;3.10;1.90;;;29.10;22.00;;;;;;5013269;28;20462;-84
2023/05/30 11:49:28;;;;;;;4.23;1.70;;;29.20;21.20;;;;;;5021692;28;20469;-84
2023/05/30 11:51:55;;;;;;;7.20;2.27;;;28.80;21.10;;;;;;5022418;28;20481;-84
2023/05/30 11:54:22;;;;;;;5.20;1.93;;;29.10;22.10;;;;;;5011192;28;20477;-85
2023/05/30 11:56:54;;;;;;;2.63;1.83;;;29.20;21.40;;;;;;5024146;28;20456;-84
2023/05/30 11:59:22;;;;;;;8.90;2.80;;;29.30;21.80;;;;;;5006038;28;20462;-84
2023/05/30 12:01:57;;;;;;;3.37;1.73;;;29.20;20.90;;;;;;5007376;28;20455;-84
2023/05/30 12:04:26;;;;;;;5.50;1.90;;;29.20;21.20;;;;;;5016038;28;22874;-85
2023/05/30 12:06:53;;;;;;;4.57;1.87;;;29.80;21.20;;;;;;5008647;28;21046;-85
2023/05/30 12:09:21;;;;;;;3.10;1.87;;;30.00;20.30;;;;;;5024570;28;20477;-84
2023/05/30 12:11:58;;;;;;;7.23;2.13;;;30.20;20.90;;;;;;5025899;28;20493;-85
2023/05/30 12:14:29;;;;;;;5.30;1.70;;;30.20;20.10;;;;;;5010008;28;20480;-85
2023/05/30 12:16:57;;;;;;;3.67;1.70;;;29.80;20.10;;;;;;4991559;28;20451;-84
2023/05/30 12:19:31;;;;;;;9.07;2.50;;;29.60;19.10;;;;;;5017010;28;20541;-84
2023/05/30 12:21:58;;;;;;;3.50;2.30;;;29.60;19.50;;;;;;5014764;28;20465;-84
2023/05/30 12:24:25;;;;;;;2.93;1.80;;;29.60;18.80;;;;;;5014703;28;20847;-86
2023/05/30 12:26:56;;;;;;;4.37;2.10;;;29.60;19.20;;;;;;5025823;28;21405;-83
2023/05/30 12:29:24;;;;;;;3.53;1.40;;;29.80;19.70;;;;;;4993979;28;20627;-84
2023/05/30 12:31:52;;;;;;;2.30;1.30;;;29.80;18.10;;;;;;5028700;28;20460;-85
2023/05/30 12:34:20;;;;;;;3.60;1.90;;;29.80;18.70;;;;;;5009911;28;21206;-84
2023/05/30 12:36:47;;;;;;;2.73;1.80;;;29.50;19.30;;;;;;5027723;28;20471;-84
2023/05/30 12:39:15;;;;;;;4.33;2.30;;;29.70;19.80;;;;;;5012111;28;20547;-84
2023/05/30 12:41:42;;;;;;;4.40;2.03;;;29.50;18.50;;;;;;5023791;28;20442;-85
2023/05/30 12:44:17;;;;;;;2.53;2.00;;;29.40;19.30;;;;;;5009654;28;20454;-84
2023/05/30 12:46:44;;;;;;;4.47;1.60;;;29.40;18.60;;;;;;5000249;28;20465;-84
2023/05/30 12:49:11;;;;;;;10.33;3.50;;;29.40;19.50;;;;;;5013008;28;20489;-83
2023/05/30 12:51:38;;;;;;;3.10;1.43;;;29.50;18.50;;;;;;5024040;28;20447;-84
2023/05/30 12:54:06;;;;;;;6.20;2.00;;;29.10;18.90;;;;;;5024329;28;20471;-82